sensor_id;sensor_type;location;lat;lon;timestamp;P1;durP1;ratioP1;P2;durP2;ratioP2
57339;SDS011;43174;50.930;18.170;2023-02-28T00:07:18;4.60;;;4.50;;
57339;SDS011;43174;50.930;18.170;2023-02-28T00:17:01;9.30;;;8.60;;
57339;SDS011;43174;50.930;18.170;2023-02-28T00:26:43;8.80;;;8.30;;
57339;SDS011;43174;50.930;18.170;2023-02-28T00:36:25;10.70;;;10.20;;
57339;SDS011;43174;50.930;18.170;2023-02-28T00:46:07;10.40;;;9.90;;
57339;SDS011;43174;50.930;18.170;2023-02-28T00:55:51;9.30;;;8.90;;
57339;SDS011;43174;50.930;18.170;2023-02-28T01:05:33;25.70;;;10.30;;
57339;SDS011;43174;50.930;18.170;2023-02-28T01:15:15;10.40;;;10.00;;
57339;SDS011;43174;50.930;18.170;2023-02-28T01:24:58;10.80;;;10.20;;
57339;SDS011;43174;50.930;18.170;2023-02-28T01:34:40;8.40;;;8.10;;
57339;SDS011;43174;50.930;18.170;2023-02-28T01:54:34;10.10;;;9.70;;
57339;SDS011;43174;50.930;18.170;2023-02-28T02:04:16;13.10;;;12.30;;
57339;SDS011;43174;50.930;18.170;2023-02-28T02:14:06;10.40;;;10.00;;
57339;SDS011;43174;50.930;18.170;2023-02-28T02:43:40;16.90;;;11.60;;
57339;SDS011;43174;50.930;18.170;2023-02-28T02:53:30;12.40;;;11.80;;
57339;SDS011;43174;50.930;18.170;2023-02-28T03:10:32;15.00;;;13.80;;
57339;SDS011;43174;50.930;18.170;2023-02-28T03:20:32;39.30;;;18.50;;
57339;SDS011;43174;50.930;18.170;2023-02-28T03:40:11;19.30;;;17.90;;
57339;SDS011;43174;50.930;18.170;2023-02-28T03:49:59;12.10;;;11.50;;
57339;SDS011;43174;50.930;18.170;2023-02-28T03:59:50;9.80;;;9.50;;
57339;SDS011;43174;50.930;18.170;2023-02-28T04:09:35;19.00;;;15.20;;
57339;SDS011;43174;50.930;18.170;2023-02-28T04:19:17;23.00;;;21.00;;
57339;SDS011;43174;50.930;18.170;2023-02-28T04:29:06;12.60;;;11.90;;
57339;SDS011;43174;50.930;18.170;2023-02-28T04:38:48;35.80;;;12.80;;
57339;SDS011;43174;50.930;18.170;2023-02-28T04:48:32;17.70;;;16.70;;
57339;SDS011;43174;50.930;18.170;2023-02-28T04:58:15;21.20;;;19.60;;
57339;SDS011;43174;50.930;18.170;2023-02-28T05:07:57;10.50;;;10.10;;
57339;SDS011;43174;50.930;18.170;2023-02-28T05:17:39;26.50;;;15.00;;
57339;SDS011;43174;50.930;18.170;2023-02-28T05:27:21;61.50;;;31.00;;
57339;SDS011;43174;50.930;18.170;2023-02-28T05:37:03;79.20;;;36.10;;
57339;SDS011;43174;50.930;18.170;2023-02-28T05:46:45;38.30;;;23.20;;
57339;SDS011;43174;50.930;18.170;2023-02-28T05:56:30;58.70;;;28.50;;
57339;SDS011;43174;50.930;18.170;2023-02-28T06:06:13;55.00;;;28.40;;
57339;SDS011;43174;50.930;18.170;2023-02-28T06:15:55;34.40;;;18.30;;
57339;SDS011;43174;50.930;18.170;2023-02-28T06:25:44;53.50;;;19.50;;
57339;SDS011;43174;50.930;18.170;2023-02-28T06:35:26;29.70;;;16.60;;
57339;SDS011;43174;50.930;18.170;2023-02-28T06:45:09;24.30;;;16.00;;
57339;SDS011;43174;50.930;18.170;2023-02-28T06:54:52;34.70;;;22.90;;
57339;SDS011;43174;50.930;18.170;2023-02-28T07:04:41;42.60;;;24.00;;
57339;SDS011;43174;50.930;18.170;2023-02-28T07:14:26;17.80;;;16.10;;
57339;SDS011;43174;50.930;18.170;2023-02-28T07:24:08;24.90;;;19.40;;
57339;SDS011;43174;50.930;18.170;2023-02-28T07:33:50;27.90;;;22.30;;
57339;SDS011;43174;50.930;18.170;2023-02-28T07:43:35;33.20;;;24.50;;
57339;SDS011;43174;50.930;18.170;2023-02-28T07:53:20;24.20;;;17.30;;
57339;SDS011;43174;50.930;18.170;2023-02-28T08:03:02;12.00;;;11.00;;
57339;SDS011;43174;50.930;18.170;2023-02-28T08:12:44;13.80;;;12.80;;
57339;SDS011;43174;50.930;18.170;2023-02-28T08:22:26;9.40;;;8.70;;
57339;SDS011;43174;50.930;18.170;2023-02-28T08:32:09;7.70;;;5.60;;
57339;SDS011;43174;50.930;18.170;2023-02-28T08:41:51;5.90;;;5.60;;
57339;SDS011;43174;50.930;18.170;2023-02-28T08:51:35;5.70;;;5.40;;
57339;SDS011;43174;50.930;18.170;2023-02-28T09:01:21;4.70;;;4.40;;
57339;SDS011;43174;50.930;18.170;2023-02-28T09:11:04;8.60;;;7.10;;
57339;SDS011;43174;50.930;18.170;2023-02-28T09:20:49;5.70;;;5.00;;
57339;SDS011;43174;50.930;18.170;2023-02-28T09:30:32;5.50;;;5.20;;
57339;SDS011;43174;50.930;18.170;2023-02-28T09:40:18;7.80;;;7.30;;
57339;SDS011;43174;50.930;18.170;2023-02-28T10:00:05;4.20;;;3.90;;
57339;SDS011;43174;50.930;18.170;2023-02-28T10:09:53;5.60;;;5.20;;
57339;SDS011;43174;50.930;18.170;2023-02-28T10:29:20;8.00;;;7.30;;
57339;SDS011;43174;50.930;18.170;2023-02-28T10:39:21;16.20;;;7.90;;
57339;SDS011;43174;50.930;18.170;2023-02-28T10:49:05;8.10;;;7.70;;
57339;SDS011;43174;50.930;18.170;2023-02-28T10:58:59;8.10;;;7.50;;
57339;SDS011;43174;50.930;18.170;2023-02-28T11:18:34;8.10;;;7.70;;
57339;SDS011;43174;50.930;18.170;2023-02-28T11:28:32;41.70;;;7.90;;
57339;SDS011;43174;50.930;18.170;2023-02-28T11:38:15;10.00;;;8.70;;
57339;SDS011;43174;50.930;18.170;2023-02-28T11:48:08;8.20;;;7.70;;
57339;SDS011;43174;50.930;18.170;2023-02-28T12:34:49;19.00;;;16.70;;
57339;SDS011;43174;50.930;18.170;2023-02-28T12:44:40;10.00;;;9.10;;
57339;SDS011;43174;50.930;18.170;2023-02-28T12:54:26;18.60;;;16.80;;
57339;SDS011;43174;50.930;18.170;2023-02-28T13:14:16;13.00;;;12.40;;
57339;SDS011;43174;50.930;18.170;2023-02-28T13:24:01;17.20;;;15.70;;
57339;SDS011;43174;50.930;18.170;2023-02-28T13:53:55;27.30;;;17.00;;
57339;SDS011;43174;50.930;18.170;2023-02-28T14:31:06;5.00;;;4.70;;
57339;SDS011;43174;50.930;18.170;2023-02-28T14:40:51;8.90;;;8.40;;
57339;SDS011;43174;50.930;18.170;2023-02-28T14:50:35;11.00;;;10.20;;
57339;SDS011;43174;50.930;18.170;2023-02-28T15:00:22;13.00;;;12.20;;
57339;SDS011;43174;50.930;18.170;2023-02-28T15:19:54;13.60;;;12.80;;
57339;SDS011;43174;50.930;18.170;2023-02-28T15:39:51;19.20;;;17.40;;
57339;SDS011;43174;50.930;18.170;2023-02-28T15:56:53;18.30;;;17.00;;
57339;SDS011;43174;50.930;18.170;2023-02-28T16:06:44;22.90;;;20.70;;
57339;SDS011;43174;50.930;18.170;2023-02-28T16:16:26;23.70;;;15.60;;
57339;SDS011;43174;50.930;18.170;2023-02-28T16:33:25;44.10;;;30.70;;
57339;SDS011;43174;50.930;18.170;2023-02-28T16:43:10;41.30;;;26.00;;
57339;SDS011;43174;50.930;18.170;2023-02-28T16:52:54;40.80;;;24.10;;
57339;SDS011;43174;50.930;18.170;2023-02-28T17:02:37;14.50;;;13.70;;
57339;SDS011;43174;50.930;18.170;2023-02-28T17:12:20;46.70;;;23.90;;
57339;SDS011;43174;50.930;18.170;2023-02-28T17:22:03;59.80;;;30.30;;
57339;SDS011;43174;50.930;18.170;2023-02-28T17:31:45;68.70;;;32.30;;
57339;SDS011;43174;50.930;18.170;2023-02-28T17:48:53;39.90;;;22.30;;
57339;SDS011;43174;50.930;18.170;2023-02-28T17:58:36;51.30;;;29.40;;
57339;SDS011;43174;50.930;18.170;2023-02-28T18:08:19;48.30;;;34.60;;
57339;SDS011;43174;50.930;18.170;2023-02-28T18:18:04;88.70;;;27.60;;
57339;SDS011;43174;50.930;18.170;2023-02-28T18:27:49;72.80;;;27.30;;
57339;SDS011;43174;50.930;18.170;2023-02-28T18:47:48;136.10;;;51.90;;
57339;SDS011;43174;50.930;18.170;2023-02-28T18:57:32;107.50;;;39.10;;
57339;SDS011;43174;50.930;18.170;2023-02-28T19:07:16;70.80;;;33.00;;
57339;SDS011;43174;50.930;18.170;2023-02-28T19:16:59;93.30;;;44.40;;
57339;SDS011;43174;50.930;18.170;2023-02-28T19:26:44;63.40;;;26.60;;
57339;SDS011;43174;50.930;18.170;2023-02-28T19:36:27;112.90;;;40.80;;
57339;SDS011;43174;50.930;18.170;2023-02-28T19:46:10;100.10;;;42.60;;
57339;SDS011;43174;50.930;18.170;2023-02-28T19:55:53;102.40;;;47.80;;
57339;SDS011;43174;50.930;18.170;2023-02-28T20:05:35;110.60;;;47.10;;
57339;SDS011;43174;50.930;18.170;2023-02-28T20:15:22;124.40;;;47.60;;
57339;SDS011;43174;50.930;18.170;2023-02-28T20:32:25;129.10;;;44.20;;
57339;SDS011;43174;50.930;18.170;2023-02-28T20:42:07;76.20;;;34.60;;
57339;SDS011;43174;50.930;18.170;2023-02-28T20:51:51;126.90;;;44.40;;
57339;SDS011;43174;50.930;18.170;2023-02-28T21:01:33;94.50;;;46.50;;
57339;SDS011;43174;50.930;18.170;2023-02-28T21:11:21;90.60;;;42.50;;
57339;SDS011;43174;50.930;18.170;2023-02-28T21:21:08;81.00;;;38.10;;
57339;SDS011;43174;50.930;18.170;2023-02-28T21:30:50;100.00;;;48.60;;
57339;SDS011;43174;50.930;18.170;2023-02-28T21:40:32;119.80;;;49.10;;
57339;SDS011;43174;50.930;18.170;2023-02-28T21:50:17;115.30;;;46.40;;
57339;SDS011;43174;50.930;18.170;2023-02-28T22:00:02;55.60;;;40.60;;
57339;SDS011;43174;50.930;18.170;2023-02-28T22:09:46;138.40;;;48.30;;
57339;SDS011;43174;50.930;18.170;2023-02-28T22:19:29;132.70;;;45.20;;
57339;SDS011;43174;50.930;18.170;2023-02-28T22:29:14;151.10;;;44.50;;
57339;SDS011;43174;50.930;18.170;2023-02-28T22:38:57;124.20;;;54.30;;
57339;SDS011;43174;50.930;18.170;2023-02-28T22:48:39;147.30;;;50.10;;
57339;SDS011;43174;50.930;18.170;2023-02-28T23:05:38;126.10;;;47.40;;
57339;SDS011;43174;50.930;18.170;2023-02-28T23:10:30;199.60;;;72.60;;
57339;SDS011;43174;50.930;18.170;2023-02-28T23:20:14;166.50;;;60.10;;
57339;SDS011;43174;50.930;18.170;2023-02-28T23:30:01;83.30;;;39.60;;
57339;SDS011;43174;50.930;18.170;2023-02-28T23:39:45;162.00;;;58.30;;
57339;SDS011;43174;50.930;18.170;2023-02-28T23:49:27;109.80;;;44.50;;
57339;SDS011;43174;50.930;18.170;2023-02-28T23:59:09;133.90;;;46.70;;
